Weather at Seattle Tacoma International Airport

Public forecast

Using degrees Fahrenheit for public forecast. Weather courtesy of forecast.io.

Current aviation weather report (METAR) for Seattle Tacoma International Airport

Retrieved 2020/10/22 01:53 UTC (44 minutes ago):

KSEA 220153Z 19005KT 10SM SCT036 08/05 A3022 RMK AO2 SLP241 T00830050

Aviation forecast (TAF) for Seattle Tacoma International Airport

Retrieved 2020-10-22 00:39 UTC (2 hours ago):

TAF KSEA 212337Z 2200/2306 04005KT P6SM SCT025 BKN035 BKN050 FM220100 04005KT P6SM SCT050 SCT250 FM220600 08004KT P6SM FEW250 FM221400 08003KT P6SM SCT007 FM221900 32004KT P6SM SCT250